WetterOnline ( https://www.wetteronline.de )

Wetter aktuell Spremberg

Aktuelles Wetter: Hoyerswerda (116m)

6-stündlich | Neueste Meldungen
Ortszeit Temperatur Wetter
So, 29.01. 19:00 0.1° C bedeckt
So, 29.01. 13:00 -0.5° C bedeckt
So, 29.01. 7:00 -2.1° C bedeckt
So, 29.01. 1:00 -1.4° C bedeckt
Sa, 28.01. 19:00 -0.9° C bedeckt
Sa, 28.01. 13:00 -0.9° C bedeckt
Sa, 28.01. 7:00 -1.8° C bedeckt
Sa, 28.01. 1:00 0.4° C bedeckt
Ortszeit Temperatur Wetter
So, 29.01. 23:00 -0.6° C bewölkt
So, 29.01. 22:50 -0.6° C bewölkt
So, 29.01. 22:40 -0.5° C bedeckt
So, 29.01. 22:30 -0.4° C bedeckt
So, 29.01. 22:20 -0.4° C bedeckt
So, 29.01. 22:10 -0.4° C bedeckt
So, 29.01. 22:00 -0.4° C bewölkt
So, 29.01. 21:30 -0.2° C bedeckt
So, 29.01. 21:00 -0.4° C bewölkt
So, 29.01. 20:30 -0.3° C bedeckt
So, 29.01. 20:00 -0.1° C bedeckt
Ortszeit Relative Feuchte Sichtweite
So, 29.01. 19:00 75% 35 km
So, 29.01. 13:00 81% 29 km
So, 29.01. 7:00 74% 35 km
So, 29.01. 1:00 80% 35 km
Sa, 28.01. 19:00 75% 55 km
Sa, 28.01. 13:00 71% 60 km
Sa, 28.01. 7:00 80% 50 km
Sa, 28.01. 1:00 88% 30 km
Ortszeit Relative Feuchte Sichtweite
So, 29.01. 23:00 73% 40 km
So, 29.01. 22:50 73% -
So, 29.01. 22:40 73% -
So, 29.01. 22:30 74% 40 km
So, 29.01. 22:20 74% -
So, 29.01. 22:10 74% -
So, 29.01. 22:00 75% 35 km
So, 29.01. 21:30 75% 40 km
So, 29.01. 21:00 76% 35 km
So, 29.01. 20:30 77% 35 km
So, 29.01. 20:00 76% 40 km
Ortszeit Niederschlagsmenge Niederschlagsart
So, 29.01. 19:00 0.1 l/m2 in 12 Std. Schnee, Sprühregen
So, 29.01. 13:00 0.0 l/m2 in 6 Std. -
So, 29.01. 7:00 0.1 l/m2 in 12 Std. -
So, 29.01. 1:00 0.1 l/m2 in 6 Std. Schnee
Sa, 28.01. 19:00 0.1 l/m2 in 12 Std. Schnee
Sa, 28.01. 13:00 0.1 l/m2 in 6 Std. Schnee
Sa, 28.01. 7:00 0.1 l/m2 in 12 Std. -
Sa, 28.01. 1:00 0.1 l/m2 in 6 Std. Schnee, Regen
Ortszeit Niederschlagsmenge Niederschlagsart
So, 29.01. 23:00 0.0 l/m2 in 1 Std. -
So, 29.01. 22:50 keine Meldung -
So, 29.01. 22:40 keine Meldung -
So, 29.01. 22:30 0.0 l/m2 in 30 Min -
So, 29.01. 22:20 keine Meldung -
So, 29.01. 22:10 keine Meldung -
So, 29.01. 22:00 0.0 l/m2 in 1 Std. -
So, 29.01. 21:30 0.0 l/m2 in 30 Min -
So, 29.01. 21:00 0.0 l/m2 in 1 Std. -
So, 29.01. 20:30 0.0 l/m2 in 30 Min -
So, 29.01. 20:00 0.0 l/m2 in 1 Std. -
Ortszeit Stärke Spitze Richtung
km/h Bft. km/h Grad Sektor
So, 29.01. 19:00 20 4 37 250° W
So, 29.01. 13:00 18 3 32 240° SW
So, 29.01. 7:00 18 3 29 240° SW
So, 29.01. 1:00 9 2 22 240° SW
Sa, 28.01. 19:00 6 1 19 280° W
Sa, 28.01. 13:00 7 2 22 350° N
Sa, 28.01. 7:00 11 2 25 10° N
Sa, 28.01. 1:00 9 2 24 30° NO
Ortszeit Stärke Spitze Richtung
km/h Bft. km/h Grad Sektor
So, 29.01. 23:00 22 4 40 240° SW
So, 29.01. 22:50 22 4 - 240° SW
So, 29.01. 22:40 25 4 - 240° SW
So, 29.01. 22:30 22 4 36 240° SW
So, 29.01. 22:20 22 4 - 240° SW
So, 29.01. 22:10 22 4 - 230° SW
So, 29.01. 22:00 22 4 32 240° SW
So, 29.01. 21:30 20 4 33 240° SW
So, 29.01. 21:00 20 4 33 240° SW
So, 29.01. 20:30 18 3 32 230° SW
So, 29.01. 20:00 19 3 30 240° SW
Ortszeit Untergrenze Bedeckung Gattung
total tief tief mittel hoch
So, 29.01. 19:00 1020 m 8/8 8/8 - - -
So, 29.01. 13:00 480 m 8/8 8/8 - - -
So, 29.01. 7:00 870 m 8/8 8/8 - - -
So, 29.01. 1:00 840 m 8/8 8/8 - - -
Sa, 28.01. 19:00 810 m 8/8 8/8 - - -
Sa, 28.01. 13:00 720 m 8/8 8/8 - - -
Sa, 28.01. 7:00 510 m 8/8 8/8 - - -
Sa, 28.01. 1:00 330 m 8/8 8/8 - - -
Ortszeit Bedeckungsgrad in Achtel und Wolkenuntergrenze
So, 29.01. 23:00 3(780m) 5(1500m) 8(3900m)
So, 29.01. 22:50 3(780m) 5(1500m) 8(3900m)
So, 29.01. 22:40 8
So, 29.01. 22:30 8(840m) 8(4500m)
So, 29.01. 22:20 8(840m) 8(4500m)
So, 29.01. 22:10 8
So, 29.01. 22:00 7(840m) 8(4500m) 8(7200m)
So, 29.01. 21:30 8(810m)
So, 29.01. 21:00 4(960m) 6(1230m) 8(4500m)
So, 29.01. 20:30 8(1050m) 8(4800m)
So, 29.01. 20:00 1(690m) 8(1500m) 8(4800m)
Ortszeit Luftdruck NN (hPa) Tendenz (hPa in 3 Std.)
So, 29.01. 19:00 1023 - 1,1
So, 29.01. 13:00 1026 - 1,6
So, 29.01. 7:00 1027 - 1,4
So, 29.01. 1:00 1029 - 0,3
Sa, 28.01. 19:00 1029 + 0,5
Sa, 28.01. 13:00 1029 + 0,3
Sa, 28.01. 7:00 1028 + 1,2
Sa, 28.01. 1:00 1026 0,0
Ortszeit Luftdruck NN (hPa) Tendenz (hPa in 3 Std.)
So, 29.01. 23:00 1020 - 2,2
So, 29.01. 22:50 1020 keine Meldung
So, 29.01. 22:40 1020 keine Meldung
So, 29.01. 22:30 1020 - 2,4
So, 29.01. 22:20 1020 keine Meldung
So, 29.01. 22:10 1020 keine Meldung
So, 29.01. 22:00 1021 - 2,0
So, 29.01. 21:30 1021 - 1,9
So, 29.01. 21:00 1021 - 1,9
So, 29.01. 20:30 1022 - 1,9
So, 29.01. 20:00 1022 - 1,7
Ortszeit Schneehöhe (cm)
So, 29.01. 19:00 0
So, 29.01. 13:00 0
So, 29.01. 7:00 0
So, 29.01. 1:00 0
Sa, 28.01. 19:00 0
Sa, 28.01. 13:00 0
Sa, 28.01. 7:00 0
Sa, 28.01. 1:00 0
Ortszeit Schneehöhe (cm)
So, 29.01. 23:00 0
So, 29.01. 22:50 0
So, 29.01. 22:40 0
So, 29.01. 22:30 0
So, 29.01. 22:20 0
So, 29.01. 22:10 0
So, 29.01. 22:00 0
So, 29.01. 21:30 0
So, 29.01. 21:00 0
So, 29.01. 20:30 0
So, 29.01. 20:00 0
Link zu dieser Seite / Seite empfehlen

Das Wetter in ...